Last server records
Pro Nub

Map info

daza_escape
daza_escape ( Cosy-Climbing) 20.10.2010
Cosy-Climbing record HaMMa - 01:24.18

KZ-Rush record HaMMa - 01:24.18

Mapper  daza

Pro-record lala - 01:25.78

Nub-record passing_by - 01:32.85 (27 cp / 1 gc)

Difficulty Easy

Length Short

Download map daza_escape (1,75 MB)
Installation instructions

Map Installation Guide

  1. Download map archive daza_escape.zip
  2. Unzip the archive in any convenient folder
  3. Open cstrike folder, which is located in the place of Counter-Strike installation. In case of Steam version the path looks like Steam\steamapps\common\Half-Life
  4. Copy all files from the folder, where you unzipped the archive, to cstrike folder according to the following table (if your system asks about replacing files, choose Copy and Replace):
maps/daza_escape.bsp>>maps/daza_escape.bsp
sound/daza_escape/waterrun.wav>>sound/daza_escape/waterrun.wav
sprites/daza_escape/steam2.spr>>sprites/daza_escape/steam2.spr
We don't know about shortcuts on this map

Community records

# Player Time Difference Date  
1 HaMMa 01:24.18   25.05.20
2 Crazy 01:40.53 -00:16.35 11.04.20
3 avivVv 02:01.33 -00:37.15 14.02.21
4 tasi 02:02.20 -00:38.02 13.05.20
5 d33wer 02:04.31 -00:40.13 01.04.20
6 DragKedja 02:23.57 -00:59.39 03.08.19
7 DON_SIMON 02:33.88 -01:09.70 15.05.19
# Player Time Date Weapon
1 lala 01:25.78 25.07.20
2 jobenz 01:28.17 26.07.20
3 EnoT 01:35.41 31.07.20
4 Izgoy 01:37.41 07.03.20
5 jungle 01:37.78 07.03.20
6 dzerika 01:43.94 25.07.20
7 SlasHeR 01:44.79 14.07.19
8 pussymeaw 01:46.00 31.07.20
9 Spaetiem 01:46.18 28.01.21
10 snegg 01:48.05 09.08.19
11 Roseanne_Park. 01:49.42 28.03.20
12 hymm4sssS 01:50.83 08.06.20
13 Masljonok 01:51.48 09.08.19
14 lol 01:51.82 08.06.20
15 helLow 01:53.24 25.07.20
16 Master_Me4a 01:54.14 07.03.20
17 -Gow- 01:54.87 01.09.19
18 trololo 01:58.84 01.09.19
19 Jus7_M3 02:00.95 28.03.20
20 mFa-X 02:01.52 14.11.20
21 bembel904 02:04.46 07.03.20
22 EcLiPSe 02:05.42 29.06.19
23 Sly 02:06.05 09.01.21
24 Neiro 02:09.19 12.03.19
25 Valoodja 02:10.16 29.12.20
26 Demontaj_ebalnika 02:11.29 15.11.19
27 sekai 02:11.42 15.01.19
28 CoMeBaCK 02:12.07 31.07.20
29 Zimok 02:13.32 07.03.20
30 Jmuriq 02:15.87 15.11.20
31 1111 02:18.34 25.07.20
32 Presive 02:20.64 08.06.20
33 chiba 02:22.46 28.01.21
34 Covid_19 02:26.88 08.06.20
35 yoofz 02:27.02 28.03.20
36 DragKedja 02:28.62 29.06.19
37 PoweR 02:29.08 31.07.20
38 Penguin 02:29.65 07.03.20
39 samra 02:29.67 09.08.19
40 Deadpool 02:33.70 07.03.20
41 Pudgelucent 02:34.01 28.03.20
42 zambonya 02:35.13 07.03.20
43 termik 02:35.61 28.03.20
44 gidozepam 02:36.43 01.09.19
45 sperik` 02:37.11 19.05.19
46 FrX 02:37.39 29.06.19
47 scarlxrd 02:38.18 14.11.20
48 YanaLapa 02:39.93 01.09.19
49 f1NN- 02:43.53 09.08.19
50 KaZaX 02:45.02 31.07.20
51 Shinzo 02:45.88 26.07.20
52 paradox 02:46.88 31.07.20
53 PSF 02:47.07 28.01.21
54 nucles 02:47.64 25.04.20
55 Ecstasy 02:57.46 08.06.20
56 pwned 03:01.39 09.08.19
57 DON_SIMON 03:07.07 04.05.19
58 Bu3T 03:07.50 07.03.20
59 sLow 03:07.52 14.11.20
60 Ripzu 03:09.65 29.12.20
61 Edd 03:10.66 01.09.19
62 Hotler 03:15.86 08.06.20
63 mistik 03:16.36 11.04.19
64 asdasdas 03:18.28 07.03.20
65 tolyatti 03:21.77 28.03.20
66 Vasudeva 03:25.75 28.01.21
67 DeZ 03:26.23 08.06.20
68 p3ff 03:27.57 29.06.19
69 No_sound 03:29.07 28.03.20
70 sAnd 03:29.67 05.09.20
71 na4 03:33.12 09.08.19
72 eastmordor 03:34.04 12.11.20
73 Nutella 03:38.38 15.11.19
74 Okazys 03:41.83 28.10.20
75 cstrike 03:47.08 28.03.20
76 E1EMENTCORE 03:51.75 29.06.19
77 Riots 03:53.01 29.12.20
78 Seth 03:56.12 24.05.20
79 rapier 04:01.35 28.03.20
80 abubas 04:08.68 09.01.21
81 Qicg 04:08.85 18.01.21
82 gf97 04:17.00 31.07.20
83 atopsgaming 04:35.25 08.06.20
84 Alma 04:38.32 28.01.21
85 avivVv 04:58.23 31.07.20
86 BarnabusWizardcock 04:59.07 21.08.19
87 AKB 05:17.04 28.01.21
88 artem671games 05:45.78 09.08.19
89 ONe 06:09.70 07.03.20
90 abcdefg 06:40.92 31.01.19
91 myinkluch 07:47.78 08.06.20
92 40fps 07:52.32 08.06.20
93 4ChD(no_sound) 09:16.35 07.03.20
94 Mirnaya 10:23.75 09.08.19
# Player Time Date Weapon CP GC
1 passing_by 01:32.85 28.03.20 27 1
2 pussymeaw 01:47.95 31.07.20 17 2
3 Izgoy 01:48.98 07.03.20 35 1
4 Roseanne_Park. 01:52.24 28.03.20 27 3
5 lai 01:52.63 28.03.20 36 4
6 Xsi 01:52.99 08.06.20 31 4
7 Masljonok 01:53.99 09.08.19 36 5
8 lampoviyASd 01:55.19 08.06.20 53 4
9 Madcat 01:57.96 23.04.19 38 2
10 Qalwin 02:02.34 08.06.20 38 7
11 kocm 02:03.15 08.06.20 45 4
12 LOVEG 02:03.34 08.06.20 46 6
13 eMurkt 02:04.50 08.06.20 27 3
14 BlizZz 02:05.98 28.03.20 35 11
15 Sly 02:06.03 28.01.21 44 12
16 q_d_p_b 02:13.55 28.01.21 48 7
17 Evis 02:14.26 28.03.20 63 12
18 PlayFoRmE 02:14.86 03.05.20 42 2
19 samra 02:15.02 09.08.19 50 6
20 pL 02:15.29 07.03.20 35 9
21 Kitty 02:16.64 10.08.19 39 5
22 pwned 02:16.82 09.08.19 20 4
23 Crazy 02:18.12 28.03.20 26 14
24 solo 02:18.45 08.06.20 30 7
25 pitou 02:20.64 01.09.19 44 6
26 hymm4sssS 02:20.84 07.03.20 52 2
27 EcLiPSe 02:21.23 13.12.18 46 4
28 Dowla 02:23.31 15.01.19 46 8
29 Shanta 02:24.55 28.03.20 52 4
30 HaMMa 02:28.53 07.03.20 25 16
31 hrapchello) 02:28.60 25.07.20 42 7
32 sixteenlines 02:29.78 28.03.20 60 3
33 ZVD 02:32.19 01.09.19 38 6
34 Lique 02:32.68 08.06.20 61 4
35 zuziz0r 02:33.23 09.08.19 48 6
36 exodus 02:35.30 28.03.20 58 3
37 termik 02:37.13 28.03.20 33 6
38 Koce 02:37.62 07.03.20 51 13
39 Riots 02:40.61 29.12.20 29 2
40 Lifestealer+ 02:43.76 09.08.19 35 6
41 Jus7_M3 02:44.28 28.03.20 47 12
42 METH 02:44.34 07.03.20 58 7
43 kappA_^ 02:45.25 31.07.20 40 15
44 HjG-KazmaN 02:45.53 29.06.19 38 16
45 Presive 02:45.59 21.08.19 33 8
46 rapier 02:45.87 28.03.20 44 9
47 knz 02:46.55 07.03.20 26 11
48 lol 02:47.67 08.06.20 59 14
49 stopban 02:50.43 28.01.21 58 11
50 chiba 02:51.79 28.01.21 64 8
51 sLow 02:52.19 14.11.20 57 14
52 mls 02:53.14 29.06.19 58 11
53 thienlao111 02:54.50 07.03.20 54 13
54 123 02:54.94 28.01.21 63 13
55 mFa-X 02:55.27 14.11.20 32 12
56 куку 02:55.48 07.03.20 56 9
57 forestiik 02:57.28 08.06.20 57 8
58 Sm1T 02:58.11 09.08.19 40 17
59 Jmuriq 02:59.76 14.11.20 52 23
60 Dale^ 03:01.32 09.08.19 56 10
61 Nex 03:01.84 01.09.19 39 15
62 unsainted 03:03.94 28.01.21 13 5
63 sh1zzar4 03:07.32 01.09.19 63 12
64 Vasudeva 03:07.45 07.03.20 61 10
65 mrp 03:08.17 19.05.19 55 9
66 1111 03:09.70 25.07.20 75 23
67 AlexGood 03:12.11 29.12.20 67 18
68 Fuzuk123_kz-b0t 03:13.73 01.09.19 66 18
69 NeZo 03:14.77 10.08.19 67 22
70 Superlative_trickS# 03:14.88 29.12.20 61 11
71 cadence 03:17.15 29.06.19 87 20
72 DOOM 03:18.00 29.12.20 18 15
73 kvirre 03:18.41 07.03.20 41 17
74 dark69 03:21.96 07.03.20 73 26
75 -Gow- 03:26.79 01.09.19 36 17
76 Rise 03:27.63 28.03.20 44 16
77 Death_Eater 03:28.90 01.09.19 41 19
78 1WERANCE 03:30.07 28.03.20 87 7
79 Aivaras 03:38.36 25.07.20 52 32
80 php_echo_Hello_World_ 03:42.20 16.10.19 60 17
81 atopsgaming 03:42.79 08.06.20 58 23
82 gidozepam 03:42.80 01.09.19 58 1
83 sperik` 03:46.29 19.05.19 64 12
84 abubas 03:46.86 09.01.21 72 9
85 машына 03:51.87 09.08.19 52 16
86 trama1 03:52.23 28.03.20 86 15
87 Andris 03:53.13 28.03.20 76 20
88 6ix6ix6ix 03:55.96 31.07.20 47 20
89 kisel_iz_sustavov 04:01.99 29.06.19 68 22
90 liol 04:06.78 08.06.20 55 29
91 Kardel 04:09.30 28.03.20 62 20
92 walkthedog 04:13.99 28.03.20 76 15
93 niken 04:18.77 28.01.21 44 49
94 [Uchiha]Madara 04:27.33 08.06.20 41 16
95 lala 04:43.54 25.07.20 45 15
96 artem671games 04:45.62 09.08.19 64 14
97 ACID_THUNDER 04:48.00 31.07.20 45 59
98 pypok 04:49.23 01.09.19 95 31
99 puffpuffpuff 04:51.39 31.01.19 47 37
100 z1ka 05:06.91 31.07.20 67 27
101 Your_perdak_is_under_attack 05:08.42 28.03.20 76 44
102 3nns 05:30.17 28.03.20 72 53
103 Hawk 05:40.85 15.11.19 75 67
104 n1Russian_bear74rus 05:43.68 09.08.19 30 24
105 Bulka205 05:46.83 07.03.20 26 22
106 `AvAl0N 05:48.03 29.12.20 77 43
107 40fps 07:47.20 08.06.20 47 28
108 badtrip_~_clubber 08:37.24 07.03.20 32 35
109 shapka228 13:51.58 23.04.19 56 22
110 SadPuppy 18:00.63 25.07.20 15 15

Other maps with same difficulty

Other maps from Cosy-Climbing

Other maps from mapper daza